createdAt,value
2023-02-11T00:00:16.941Z,7.70
2023-02-11T00:02:46.774Z,8.40
2023-02-11T00:05:14.753Z,7.43
2023-02-11T00:07:41.614Z,7.22
2023-02-11T00:10:08.804Z,8.20
2023-02-11T00:12:36.800Z,8.32
2023-02-11T00:15:04.449Z,7.70
2023-02-11T00:17:32.510Z,7.80
2023-02-11T00:19:59.238Z,8.38
2023-02-11T00:22:25.948Z,7.40
2023-02-11T00:24:52.648Z,7.55
2023-02-11T00:27:19.319Z,6.93
2023-02-11T00:29:46.147Z,7.70
2023-02-11T00:32:12.819Z,7.63
2023-02-11T00:34:39.716Z,7.38
2023-02-11T00:37:06.589Z,7.55
2023-02-11T00:39:33.830Z,9.25
2023-02-11T00:42:03.319Z,6.95
2023-02-11T00:44:30.280Z,6.70
2023-02-11T00:46:56.950Z,7.05
2023-02-11T00:49:23.699Z,6.97
2023-02-11T00:51:50.346Z,8.18
2023-02-11T00:54:17.011Z,6.78
2023-02-11T00:56:43.686Z,7.05
2023-02-11T00:59:10.457Z,7.35
2023-02-11T01:01:37.239Z,7.97
2023-02-11T01:04:04.119Z,6.55
2023-02-11T01:06:30.941Z,7.35
2023-02-11T01:08:58.030Z,7.07
2023-02-11T01:11:24.765Z,8.32
2023-02-11T01:13:51.543Z,7.82
2023-02-11T01:16:19.602Z,7.63
2023-02-11T01:18:47.226Z,6.57
2023-02-11T01:21:14.752Z,6.25
2023-02-11T01:23:43.087Z,7.47
2023-02-11T01:26:11.794Z,7.75
2023-02-11T01:28:38.626Z,7.75
2023-02-11T01:31:05.624Z,7.03
2023-02-11T01:33:32.905Z,9.05
2023-02-11T01:36:04.294Z,8.07
2023-02-11T01:38:32.564Z,7.38
2023-02-11T01:41:02.122Z,5.93
2023-02-11T01:43:34.057Z,6.75
2023-02-11T01:46:12.137Z,7.13
2023-02-11T01:48:42.780Z,6.07
2023-02-11T01:51:20.506Z,7.22
2023-02-11T01:54:06.444Z,7.18
2023-02-11T01:57:14.354Z,6.70
2023-02-11T02:00:05.581Z,6.13
2023-02-11T02:03:07.208Z,6.25
2023-02-11T02:06:06.107Z,6.30
2023-02-11T02:08:41.900Z,6.63
2023-02-11T02:11:08.770Z,8.55
2023-02-11T02:13:37.248Z,6.57
2023-02-11T02:16:12.638Z,6.28
2023-02-11T02:19:14.697Z,6.23
2023-02-11T02:22:16.504Z,7.65
2023-02-11T02:25:08.042Z,6.78
2023-02-11T02:28:13.241Z,8.35
2023-02-11T02:30:59.757Z,7.38
2023-02-11T02:33:38.513Z,7.07
2023-02-11T02:36:08.134Z,6.55
2023-02-11T02:38:59.066Z,6.53
2023-02-11T02:41:31.593Z,6.43
2023-02-11T02:43:58.928Z,5.57
2023-02-11T02:46:28.280Z,5.82
2023-02-11T02:48:56.742Z,5.75
2023-02-11T02:51:44.567Z,7.65
2023-02-11T02:54:26.552Z,6.60
2023-02-11T02:57:18.218Z,5.95
2023-02-11T03:00:03.515Z,6.00
2023-02-11T03:02:51.232Z,5.55
2023-02-11T03:05:25.513Z,6.30
2023-02-11T03:08:24.088Z,5.80
2023-02-11T03:10:53.997Z,5.43
2023-02-11T03:13:24.597Z,5.32
2023-02-11T03:15:55.250Z,5.10
2023-02-11T03:18:26.038Z,5.45
2023-02-11T03:20:54.864Z,6.28
2023-02-11T03:23:29.187Z,5.38
2023-02-11T03:26:09.795Z,5.50
2023-02-11T03:28:46.481Z,6.22
2023-02-11T03:31:40.222Z,6.03
2023-02-11T03:34:10.001Z,5.10
2023-02-11T03:36:45.985Z,6.20
2023-02-11T03:39:19.451Z,5.10
2023-02-11T03:41:49.145Z,5.97
2023-02-11T03:44:17.155Z,6.88
2023-02-11T03:46:52.020Z,7.95
2023-02-11T03:49:21.790Z,4.47
2023-02-11T03:51:52.584Z,6.43
2023-02-11T03:54:24.689Z,7.18
2023-02-11T03:56:54.374Z,5.07
2023-02-11T03:59:21.117Z,5.15
2023-02-11T04:01:47.866Z,5.70
2023-02-11T04:04:14.867Z,4.65
2023-02-11T04:06:41.610Z,5.03
2023-02-11T04:09:08.793Z,5.20
2023-02-11T04:11:35.516Z,5.20
2023-02-11T04:14:02.389Z,4.78
2023-02-11T04:16:30.885Z,4.88
2023-02-11T04:18:57.890Z,4.80
2023-02-11T04:21:24.748Z,4.78
2023-02-11T04:23:51.457Z,4.97
2023-02-11T04:26:18.137Z,4.15
2023-02-11T04:28:44.793Z,4.20
2023-02-11T04:31:12.051Z,4.20
2023-02-11T04:33:38.836Z,4.53
2023-02-11T04:36:05.762Z,4.20
2023-02-11T04:38:32.437Z,4.55
2023-02-11T04:41:00.490Z,4.40
2023-02-11T04:43:27.283Z,4.60
2023-02-11T04:45:57.976Z,4.65
2023-02-11T04:48:25.247Z,4.95
2023-02-11T04:50:52.040Z,4.53
2023-02-11T04:53:18.816Z,4.32
2023-02-11T04:55:48.327Z,3.95
2023-02-11T04:58:15.176Z,4.68
2023-02-11T05:00:41.877Z,4.25
2023-02-11T05:03:08.545Z,4.25
2023-02-11T05:05:39.573Z,4.03
2023-02-11T05:08:07.368Z,4.20
2023-02-11T05:10:34.249Z,4.72
2023-02-11T05:13:01.014Z,4.20
2023-02-11T05:15:28.149Z,5.13
2023-02-11T05:17:54.964Z,4.72
2023-02-11T05:20:21.681Z,3.70
2023-02-11T05:22:48.564Z,4.40
2023-02-11T05:25:15.240Z,4.50
2023-02-11T05:27:41.926Z,4.10
2023-02-11T05:30:09.614Z,4.05
2023-02-11T05:32:36.358Z,4.45
2023-02-11T05:35:03.030Z,4.18
2023-02-11T05:37:29.780Z,4.13
2023-02-11T05:39:56.457Z,3.55
2023-02-11T05:42:23.096Z,4.82
2023-02-11T05:44:50.786Z,4.63
2023-02-11T05:47:17.506Z,4.28
2023-02-11T05:49:44.170Z,3.83
2023-02-11T05:52:10.845Z,4.13
2023-02-11T05:54:37.509Z,4.45
2023-02-11T05:57:04.176Z,3.55
2023-02-11T05:59:30.875Z,3.67
2023-02-11T06:01:57.550Z,3.83
2023-02-11T06:04:24.233Z,4.20
2023-02-11T06:06:50.892Z,6.18
2023-02-11T06:09:17.576Z,4.25
2023-02-11T06:11:44.320Z,4.10
2023-02-11T06:14:11.158Z,4.45
2023-02-11T06:16:38.027Z,3.63
2023-02-11T06:19:04.758Z,4.20
2023-02-11T06:21:42.976Z,3.90
2023-02-11T06:24:13.197Z,4.82
2023-02-11T06:26:39.862Z,3.95
2023-02-11T06:29:06.611Z,4.15
2023-02-11T06:31:33.486Z,4.15
2023-02-11T06:34:00.963Z,3.78
2023-02-11T06:36:27.794Z,5.18
2023-02-11T06:38:55.049Z,4.05
2023-02-11T06:41:21.813Z,3.60
2023-02-11T06:43:48.786Z,5.15
2023-02-11T06:46:16.121Z,4.07
2023-02-11T06:48:44.879Z,4.60
2023-02-11T06:51:13.288Z,4.05
2023-02-11T06:53:43.325Z,4.40
2023-02-11T06:56:16.207Z,5.82
2023-02-11T06:58:42.994Z,4.90
2023-02-11T07:01:13.212Z,3.78
2023-02-11T07:03:43.647Z,4.53
2023-02-11T07:06:17.389Z,3.88
2023-02-11T07:08:45.905Z,5.05
2023-02-11T07:11:24.095Z,4.10
2023-02-11T07:13:52.593Z,4.25
2023-02-11T07:16:20.241Z,4.05
2023-02-11T07:18:48.119Z,3.72
2023-02-11T07:21:19.357Z,4.30
2023-02-11T07:23:46.522Z,3.72
2023-02-11T07:26:15.958Z,4.18
2023-02-11T07:28:43.304Z,3.95
2023-02-11T07:31:11.637Z,4.00
2023-02-11T07:33:38.699Z,3.40
2023-02-11T07:36:07.634Z,4.53
2023-02-11T07:38:35.743Z,3.90
2023-02-11T07:41:09.273Z,3.65
2023-02-11T07:43:37.142Z,4.07
2023-02-11T07:46:08.607Z,4.03
2023-02-11T07:48:35.687Z,3.60
2023-02-11T07:51:10.755Z,4.60
2023-02-11T07:53:37.645Z,4.20
2023-02-11T07:56:05.994Z,5.03
2023-02-11T07:58:33.651Z,3.60
2023-02-11T08:01:08.414Z,3.20
2023-02-11T08:03:35.885Z,3.90
2023-02-11T08:06:07.587Z,4.22
2023-02-11T08:08:34.623Z,4.18
2023-02-11T08:11:12.955Z,3.22
2023-02-11T08:13:40.108Z,4.13
2023-02-11T08:16:07.861Z,4.18
2023-02-11T08:18:35.449Z,5.07
2023-02-11T08:21:10.161Z,5.28
2023-02-11T08:23:39.148Z,4.15
2023-02-11T08:26:08.265Z,10.95
2023-02-11T08:28:42.536Z,5.15
2023-02-11T08:31:12.421Z,4.30
2023-02-11T08:33:40.991Z,5.53
2023-02-11T08:36:29.288Z,4.63
2023-02-11T08:39:17.486Z,6.75
2023-02-11T08:41:45.931Z,4.28
2023-02-11T08:44:13.053Z,5.25
2023-02-11T08:46:39.848Z,4.85
2023-02-11T08:49:06.732Z,3.85
2023-02-11T08:51:33.721Z,6.07
2023-02-11T08:54:00.935Z,3.90
2023-02-11T08:56:29.020Z,4.88
2023-02-11T08:58:55.936Z,5.55
2023-02-11T09:01:26.331Z,4.30
2023-02-11T09:03:56.816Z,4.88
2023-02-11T09:06:24.982Z,4.70
2023-02-11T09:08:55.054Z,5.75
2023-02-11T09:11:28.319Z,4.43
2023-02-11T09:13:55.206Z,4.72
2023-02-11T09:16:24.948Z,5.45
2023-02-11T09:18:52.948Z,5.57
2023-02-11T09:21:20.021Z,4.78
2023-02-11T09:23:47.768Z,5.93
2023-02-11T09:26:20.780Z,4.95
2023-02-11T09:28:48.686Z,7.43
2023-02-11T09:31:18.555Z,7.10
2023-02-11T09:33:50.424Z,4.80
2023-02-11T09:36:23.178Z,7.97
2023-02-11T09:38:50.369Z,30.95
2023-02-11T09:41:23.261Z,41.13
2023-02-11T09:43:56.173Z,26.70
2023-02-11T09:46:24.710Z,15.15
2023-02-11T09:48:54.272Z,14.07
2023-02-11T09:51:42.977Z,7.68
2023-02-11T09:54:40.125Z,7.32
2023-02-11T09:57:22.953Z,9.88
2023-02-11T09:59:55.282Z,12.27
2023-02-11T10:03:02.057Z,11.43
2023-02-11T10:05:55.915Z,9.90
2023-02-11T10:08:28.837Z,8.93
2023-02-11T10:11:02.826Z,12.75
2023-02-11T10:13:35.281Z,5.65
2023-02-11T10:16:17.981Z,7.10
2023-02-11T10:19:16.887Z,7.10
2023-02-11T10:21:53.819Z,6.53
2023-02-11T10:24:21.634Z,4.80
2023-02-11T10:26:49.014Z,7.20
2023-02-11T10:29:26.095Z,6.40
2023-02-11T10:31:55.954Z,5.97
2023-02-11T10:34:23.905Z,4.40
2023-02-11T10:36:50.673Z,9.07
2023-02-11T10:39:26.754Z,5.38
2023-02-11T10:41:59.163Z,9.38
2023-02-11T10:44:38.571Z,5.40
2023-02-11T10:47:27.105Z,7.05
2023-02-11T10:49:54.153Z,4.45
2023-02-11T10:52:24.184Z,5.18
2023-02-11T10:54:59.428Z,5.63
2023-02-11T10:57:38.821Z,5.43
2023-02-11T11:00:23.595Z,4.03
2023-02-11T11:02:59.052Z,7.78
2023-02-11T11:05:37.743Z,5.73
2023-02-11T11:08:08.959Z,4.35
2023-02-11T11:10:37.137Z,8.23
2023-02-11T11:13:03.831Z,8.65
2023-02-11T11:15:32.027Z,5.68
2023-02-11T11:18:21.908Z,4.60
2023-02-11T11:20:59.823Z,4.95
2023-02-11T11:23:29.820Z,5.55
2023-02-11T11:26:14.268Z,5.78
2023-02-11T11:28:49.281Z,5.22
2023-02-11T11:31:22.799Z,4.45
2023-02-11T11:33:53.389Z,5.00
2023-02-11T11:36:23.639Z,5.38
2023-02-11T11:39:00.440Z,4.75
2023-02-11T11:41:30.707Z,5.03
2023-02-11T11:44:31.661Z,4.05
2023-02-11T11:47:16.160Z,4.78
2023-02-11T11:49:59.879Z,5.10
2023-02-11T11:52:32.560Z,5.70
2023-02-11T11:55:10.581Z,6.88
2023-02-11T11:57:39.138Z,5.97
2023-02-11T12:00:13.669Z,6.05
2023-02-11T12:03:01.710Z,5.53
2023-02-11T12:05:41.978Z,5.07
2023-02-11T12:08:40.151Z,4.97
2023-02-11T12:11:09.635Z,3.60
2023-02-11T12:13:42.918Z,5.65
2023-02-11T12:16:21.619Z,5.25
2023-02-11T12:19:06.253Z,4.88
2023-02-11T12:21:54.944Z,5.03
2023-02-11T12:24:30.562Z,4.90
2023-02-11T12:27:02.138Z,5.90
2023-02-11T12:29:36.813Z,5.38
2023-02-11T12:32:25.199Z,11.38
2023-02-11T12:34:51.956Z,5.03
2023-02-11T12:37:35.741Z,4.57
2023-02-11T12:40:21.780Z,6.07
2023-02-11T12:43:16.525Z,4.32
2023-02-11T12:45:53.745Z,4.05
2023-02-11T12:48:57.839Z,4.00
2023-02-11T12:51:41.561Z,4.82
2023-02-11T12:54:58.918Z,4.88
2023-02-11T12:57:34.579Z,4.40
2023-02-11T13:00:22.542Z,5.80
2023-02-11T13:03:37.385Z,5.03
2023-02-11T13:06:12.985Z,5.25
2023-02-11T13:08:56.019Z,4.30
2023-02-11T13:11:30.068Z,4.70
2023-02-11T13:14:22.074Z,4.10
2023-02-11T13:16:50.824Z,4.95
2023-02-11T13:19:42.601Z,5.55
2023-02-11T13:22:31.214Z,4.45
2023-02-11T13:25:15.983Z,5.53
2023-02-11T13:27:58.743Z,5.28
2023-02-11T13:30:30.354Z,4.68
2023-02-11T13:32:57.067Z,6.43
2023-02-11T13:35:37.057Z,4.60
2023-02-11T13:38:05.336Z,5.25
2023-02-11T13:40:38.111Z,6.03
2023-02-11T13:43:18.579Z,4.72
2023-02-11T13:45:47.803Z,4.68
2023-02-11T13:48:21.922Z,5.68
2023-02-11T13:50:51.576Z,4.88
2023-02-11T13:53:19.144Z,5.15
2023-02-11T13:55:49.768Z,5.45
2023-02-11T13:58:28.371Z,4.60
2023-02-11T14:00:55.622Z,4.20
2023-02-11T14:03:45.190Z,5.43
2023-02-11T14:06:38.193Z,4.80
2023-02-11T14:09:13.691Z,7.20
2023-02-11T14:11:40.773Z,4.45
2023-02-11T14:14:34.909Z,4.43
2023-02-11T14:17:07.789Z,5.07
2023-02-11T14:19:43.722Z,4.55
2023-02-11T14:22:10.361Z,5.15
2023-02-11T14:24:37.081Z,4.45
2023-02-11T14:27:21.317Z,7.32
2023-02-11T14:30:03.597Z,9.15
2023-02-11T14:33:03.972Z,10.48
2023-02-11T14:35:55.764Z,11.52
2023-02-11T14:39:00.019Z,10.35
2023-02-11T14:41:30.022Z,5.55
2023-02-11T14:44:22.755Z,5.65
2023-02-11T14:46:53.331Z,6.97
2023-02-11T14:49:35.459Z,7.15
2023-02-11T14:52:13.716Z,6.82
2023-02-11T14:54:43.194Z,5.20
2023-02-11T14:57:19.683Z,6.07
2023-02-11T15:00:13.869Z,8.82
2023-02-11T15:02:43.093Z,6.32
2023-02-11T15:05:26.122Z,6.95
2023-02-11T15:08:04.993Z,5.65
2023-02-11T15:10:52.976Z,5.38
2023-02-11T15:13:26.243Z,4.53
2023-02-11T15:16:04.912Z,5.72
2023-02-11T15:18:40.635Z,5.45
2023-02-11T15:21:08.233Z,5.28
2023-02-11T15:23:36.261Z,6.10
2023-02-11T15:26:05.653Z,5.15
2023-02-11T15:28:35.063Z,5.63
2023-02-11T15:31:04.225Z,6.10
2023-02-11T15:33:32.648Z,5.72
2023-02-11T15:36:01.689Z,4.28
2023-02-11T15:38:30.025Z,5.22
2023-02-11T15:41:02.120Z,6.93
2023-02-11T15:43:46.617Z,4.72
2023-02-11T15:46:22.311Z,4.88
2023-02-11T15:48:52.310Z,4.30
2023-02-11T15:51:28.641Z,5.53
2023-02-11T15:53:59.306Z,5.70
2023-02-11T15:56:48.848Z,5.28
2023-02-11T15:59:25.735Z,4.90
2023-02-11T16:01:54.240Z,4.53
2023-02-11T16:04:27.091Z,5.15
2023-02-11T16:06:55.701Z,4.82
2023-02-11T16:09:30.215Z,6.32
2023-02-11T16:12:00.438Z,5.18
2023-02-11T16:14:34.529Z,4.35
2023-02-11T16:17:14.010Z,8.57
2023-02-11T16:19:46.384Z,6.03
2023-02-11T16:22:38.093Z,10.55
2023-02-11T16:25:05.717Z,9.98
2023-02-11T16:27:40.272Z,10.70
2023-02-11T16:30:27.850Z,16.15
2023-02-11T16:32:55.021Z,13.30
2023-02-11T16:35:21.798Z,9.88
2023-02-11T16:37:48.664Z,12.48
2023-02-11T16:40:15.480Z,12.80
2023-02-11T16:42:42.487Z,10.90
2023-02-11T16:45:09.627Z,16.42
2023-02-11T16:47:40.842Z,12.57
2023-02-11T16:50:18.974Z,8.32
2023-02-11T16:52:46.352Z,12.93
2023-02-11T16:55:13.194Z,9.88
2023-02-11T16:57:39.990Z,10.65
2023-02-11T17:00:07.952Z,10.63
2023-02-11T17:02:36.969Z,10.85
2023-02-11T17:05:06.778Z,11.10
2023-02-11T17:07:33.619Z,9.07
2023-02-11T17:10:00.779Z,8.82
2023-02-11T17:12:27.709Z,12.82
2023-02-11T17:14:54.667Z,11.20
2023-02-11T17:17:23.598Z,9.02
2023-02-11T17:19:51.067Z,9.52
2023-02-11T17:22:18.581Z,10.20
2023-02-11T17:24:45.413Z,7.90
2023-02-11T17:27:12.485Z,7.65
2023-02-11T17:29:39.249Z,7.93
2023-02-11T17:32:06.087Z,8.45
2023-02-11T17:34:32.951Z,7.70
2023-02-11T17:37:00.315Z,9.63
2023-02-11T17:39:27.569Z,9.13
2023-02-11T17:41:54.459Z,9.60
2023-02-11T17:44:21.184Z,7.82
2023-02-11T17:46:48.270Z,8.90
2023-02-11T17:49:15.729Z,7.25
2023-02-11T17:51:42.524Z,8.30
2023-02-11T17:54:13.148Z,9.07
2023-02-11T17:56:40.637Z,8.20
2023-02-11T17:59:08.638Z,9.00
2023-02-11T18:01:37.210Z,9.65
2023-02-11T18:04:05.096Z,8.10
2023-02-11T18:06:33.741Z,7.85
2023-02-11T18:09:02.410Z,8.55
2023-02-11T18:11:31.142Z,7.15
2023-02-11T18:14:01.885Z,8.52
2023-02-11T18:16:30.326Z,8.48
2023-02-11T18:18:58.256Z,9.10
2023-02-11T18:21:25.362Z,8.32
2023-02-11T18:23:52.191Z,7.85
2023-02-11T18:26:20.824Z,8.48
2023-02-11T18:28:47.946Z,8.13
2023-02-11T18:31:15.684Z,8.57
2023-02-11T18:33:43.191Z,6.65
2023-02-11T18:36:13.099Z,7.97
2023-02-11T18:38:41.149Z,7.65
2023-02-11T18:41:08.301Z,8.32
2023-02-11T18:43:35.167Z,9.15
2023-02-11T18:46:06.391Z,8.45
2023-02-11T18:48:33.305Z,9.70
2023-02-11T18:50:59.972Z,10.30
2023-02-11T18:53:26.837Z,8.70
2023-02-11T18:55:54.512Z,9.10
2023-02-11T18:58:21.539Z,9.18
2023-02-11T19:00:49.224Z,10.48
2023-02-11T19:03:16.361Z,11.60
2023-02-11T19:05:44.792Z,10.10
2023-02-11T19:08:12.243Z,12.13
2023-02-11T19:10:47.061Z,11.50
2023-02-11T19:13:14.429Z,10.65
2023-02-11T19:15:42.860Z,11.23
2023-02-11T19:18:10.065Z,11.85
2023-02-11T19:20:39.721Z,12.93
2023-02-11T19:23:06.651Z,11.00
2023-02-11T19:25:33.862Z,12.02
2023-02-11T19:28:00.823Z,11.63
2023-02-11T19:30:27.995Z,13.02
2023-02-11T19:32:57.072Z,11.98
2023-02-11T19:35:24.773Z,11.02
2023-02-11T19:37:51.800Z,11.63
2023-02-11T19:40:19.211Z,11.55
2023-02-11T19:42:46.030Z,12.18
2023-02-11T19:45:12.914Z,11.60
2023-02-11T19:47:39.641Z,11.50
2023-02-11T19:50:06.932Z,11.75
2023-02-11T19:52:33.856Z,12.77
2023-02-11T19:55:01.109Z,14.40
2023-02-11T19:57:27.877Z,12.80
2023-02-11T19:59:56.902Z,12.90
2023-02-11T20:02:23.663Z,14.32
2023-02-11T20:04:50.421Z,11.45
2023-02-11T20:07:17.082Z,13.40
2023-02-11T20:09:43.752Z,13.57
2023-02-11T20:12:11.948Z,11.15
2023-02-11T20:14:38.699Z,12.32
2023-02-11T20:17:05.477Z,10.80
2023-02-11T20:19:32.219Z,12.23
2023-02-11T20:21:58.986Z,13.80
2023-02-11T20:24:25.767Z,15.07
2023-02-11T20:26:55.595Z,13.90
2023-02-11T20:29:23.350Z,14.27
2023-02-11T20:31:50.625Z,14.52
2023-02-11T20:34:17.904Z,13.02
2023-02-11T20:36:51.377Z,13.65
2023-02-11T20:39:19.149Z,15.73
2023-02-11T20:41:46.062Z,12.77
2023-02-11T20:44:13.351Z,12.93
2023-02-11T20:46:43.143Z,18.45
2023-02-11T20:49:12.235Z,12.88
2023-02-11T20:51:39.397Z,16.15
2023-02-11T20:54:06.406Z,14.23
2023-02-11T20:56:35.837Z,12.48
2023-02-11T20:59:04.005Z,14.43
2023-02-11T21:01:35.590Z,12.85
2023-02-11T21:04:05.774Z,12.82
2023-02-11T21:06:38.017Z,12.00
2023-02-11T21:09:06.860Z,14.88
2023-02-11T21:11:34.543Z,11.13
2023-02-11T21:14:02.400Z,13.52
2023-02-11T21:16:29.438Z,14.10
2023-02-11T21:18:56.840Z,12.20
2023-02-11T21:21:24.357Z,14.30
2023-02-11T21:23:51.026Z,12.35
2023-02-11T21:26:18.225Z,12.57
2023-02-11T21:28:45.025Z,13.48
2023-02-11T21:31:21.788Z,14.70
2023-02-11T21:33:50.033Z,14.07
2023-02-11T21:36:17.401Z,12.02
2023-02-11T21:38:44.076Z,14.43
2023-02-11T21:41:11.384Z,12.98
2023-02-11T21:43:38.691Z,12.90
2023-02-11T21:46:10.407Z,12.18
2023-02-11T21:48:37.192Z,13.27
2023-02-11T21:51:09.398Z,13.82
2023-02-11T21:53:36.103Z,12.27
2023-02-11T21:56:05.879Z,13.43
2023-02-11T21:58:33.102Z,12.63
2023-02-11T22:00:59.885Z,12.68
2023-02-11T22:03:26.790Z,12.25
2023-02-11T22:05:53.954Z,13.68
2023-02-11T22:08:20.842Z,12.27
2023-02-11T22:10:47.600Z,13.07
2023-02-11T22:13:14.324Z,12.68
2023-02-11T22:15:41.022Z,11.10
2023-02-11T22:18:08.139Z,11.35
2023-02-11T22:20:34.857Z,12.77
2023-02-11T22:23:01.509Z,13.60
2023-02-11T22:25:28.152Z,13.65
2023-02-11T22:27:54.781Z,12.20
2023-02-11T22:30:21.556Z,12.60
2023-02-11T22:32:48.991Z,13.10
2023-02-11T22:35:15.838Z,11.10
2023-02-11T22:37:42.526Z,13.35
2023-02-11T22:40:09.608Z,12.73
2023-02-11T22:42:36.264Z,12.55
2023-02-11T22:45:03.138Z,11.30
2023-02-11T22:47:29.823Z,10.75
2023-02-11T22:49:56.516Z,10.52
2023-02-11T22:52:23.710Z,12.15
2023-02-11T22:54:51.357Z,12.23
2023-02-11T22:57:18.011Z,9.75
2023-02-11T22:59:44.738Z,12.48
2023-02-11T23:02:11.555Z,12.15
2023-02-11T23:04:38.337Z,10.68
2023-02-11T23:07:05.002Z,11.32
2023-02-11T23:09:31.733Z,11.65
2023-02-11T23:11:58.398Z,10.90
2023-02-11T23:14:25.089Z,11.02
2023-02-11T23:16:52.064Z,11.45
2023-02-11T23:19:19.982Z,10.00
2023-02-11T23:21:50.110Z,11.20
2023-02-11T23:24:16.860Z,10.68
2023-02-11T23:26:44.320Z,10.80
2023-02-11T23:29:11.195Z,11.23
2023-02-11T23:31:40.646Z,11.27
2023-02-11T23:34:08.843Z,10.07
2023-02-11T23:36:36.122Z,10.52
2023-02-11T23:39:03.673Z,9.70
2023-02-11T23:41:30.601Z,11.27
2023-02-11T23:43:58.024Z,9.30
2023-02-11T23:46:26.248Z,9.27
2023-02-11T23:48:53.275Z,9.73
2023-02-11T23:51:20.432Z,9.30
2023-02-11T23:53:49.173Z,9.93
2023-02-11T23:56:20.005Z,10.38
2023-02-11T23:58:51.118Z,10.07
